Huntimer, South Dakota
Current Conditions -  °F | °C
As of 3:55 AM on Saturday 25 Oct 2014 (Local Time) from KMDS Reporting Station
Clear Clear  
Wind Chill: 52°   Ceiling: Unl
Heat Index: 52°   Visibility: 10mi
Dew Point: 37°   Wind: 5mph
Humidity: 58%   Direction: 360°N
Pressure: 30.07"   Gusts: NA
Location:  43.8049°N, 97.0095°W
Report Text: KMDS 250855Z AUTO 36004KT 10SM CLR 11/03 A3007 RMK AO2
Loading
Personal Weather Stations






























Interactive Weather Map
Tropical Storm Tracking
New forecast layout! Learn more

10-Day Weather Forecast

Advertisements
Track Severe Weather on mobile